Time;durP1;ratioP1;P1;durP2;ratioP2;P2;SDS_P1;SDS_P2;PMS_P1;PMS_P2;Temp;Humidity;BMP_temperature;BMP_pressure;BME280_temperature;BME280_humidity;BME280_pressure;Samples;Min_cycle;Max_cycle;Signal;HPM_P1;HPM_P2
2023/05/23 00:01:44;;;;;;;13.80;12.37;;;;;;;;;;5040863;28;20452;-79
2023/05/23 00:04:15;;;;;;;15.70;13.33;;;;;;;;;;5031195;28;21058;-80
2023/05/23 00:06:45;;;;;;;14.47;12.93;;;;;;;;;;5016251;28;20979;-80
2023/05/23 00:09:13;;;;;;;14.20;12.73;;;;;;;;;;5031772;28;20486;-80
2023/05/23 00:11:43;;;;;;;15.17;11.77;;;;;;;;;;5034163;28;20444;-80
2023/05/23 00:14:10;;;;;;;17.47;13.80;;;;;;;;;;5032832;28;20465;-80
2023/05/23 00:16:40;;;;;;;18.60;12.83;;;;;;;;;;5030751;28;20452;-80
2023/05/23 00:19:07;;;;;;;18.17;14.30;;;;;;;;;;5034225;28;20477;-80
2023/05/23 00:21:33;;;;;;;17.07;13.43;;;;;;;;;;5030175;28;20503;-80
2023/05/23 00:24:01;;;;;;;17.70;11.93;;;;;;;;;;5031893;28;20469;-79
2023/05/23 00:26:29;;;;;;;14.63;11.00;;;;;;;;;;5035796;28;20480;-79
2023/05/23 00:28:56;;;;;;;17.27;11.63;;;;;;;;;;5022474;28;20992;-80
2023/05/23 00:31:22;;;;;;;13.43;11.20;;;;;;;;;;5035207;28;20522;-80
2023/05/23 00:33:48;;;;;;;13.10;10.27;;;;;;;;;;5029523;28;20477;-80
2023/05/23 00:36:15;;;;;;;10.40;9.27;;;;;;;;;;5039949;28;20768;-81
2023/05/23 00:38:41;;;;;;;11.10;8.73;;;;;;;;;;5022461;28;20974;-80
2023/05/23 00:41:08;;;;;;;12.27;9.93;;;;;;;;;;5035881;28;20880;-80
2023/05/23 00:43:36;;;;;;;11.90;10.53;;;;;;;;;;5034669;28;20515;-80
2023/05/23 00:46:02;;;;;;;10.50;9.50;;;;;;;;;;5030112;28;20994;-79
2023/05/23 00:48:29;;;;;;;12.37;9.37;;;;;;;;;;5017164;28;20472;-80
2023/05/23 00:50:56;;;;;;;12.40;9.70;;;;;;;;;;5032874;28;20957;-81
2023/05/23 00:53:22;;;;;;;11.40;9.80;;;;;;;;;;5031389;28;21028;-79
2023/05/23 00:55:49;;;;;;;11.30;9.73;;;;;;;;;;5028466;28;20445;-80
2023/05/23 00:58:17;;;;;;;11.37;9.80;;;;;;;;;;5014726;28;20833;-80
2023/05/23 01:00:45;;;;;;;13.73;9.63;;;;;;;;;;5032871;28;20456;-80
2023/05/23 01:03:16;;;;;;;11.53;10.30;;;;;;;;;;5028680;28;20462;-81
2023/05/23 01:05:43;;;;;;;13.57;10.33;;;;;;;;;;5021912;28;20551;-80
2023/05/23 01:08:09;;;;;;;13.10;10.73;;;;;;;;;;5021175;28;20961;-80
2023/05/23 01:10:36;;;;;;;13.23;10.23;;;;;;;;;;5039393;28;20950;-80
2023/05/23 01:13:06;;;;;;;17.93;11.17;;;;;;;;;;5032537;28;20472;-80
2023/05/23 01:15:36;;;;;;;11.63;10.43;;;;;;;;;;5034460;28;20454;-80
2023/05/23 01:18:08;;;;;;;13.80;10.90;;;;;;;;;;5032075;28;20465;-79
2023/05/23 01:20:38;;;;;;;15.10;11.10;;;;;;;;;;5024724;28;21019;-79
2023/05/23 01:23:13;;;;;;;12.70;10.77;;;;;;;;;;5027675;28;20465;-79
2023/05/23 01:25:46;;;;;;;13.57;11.03;;;;;;;;;;5032869;28;20941;-80
2023/05/23 01:28:16;;;;;;;14.73;10.50;;;;;;;;;;5029978;28;20473;-80
2023/05/23 01:30:44;;;;;;;13.73;11.13;;;;;;;;;;5031965;28;20449;-79
2023/05/23 01:33:11;;;;;;;13.40;11.67;;;;;;;;;;5029182;28;20442;-80
2023/05/23 01:35:38;;;;;;;14.63;10.17;;;;;;;;;;5033850;28;20460;-80
2023/05/23 01:38:04;;;;;;;12.20;10.90;;;;;;;;;;5025201;28;20461;-80
2023/05/23 01:40:31;;;;;;;14.33;11.20;;;;;;;;;;5028003;28;20445;-79
2023/05/23 01:42:57;;;;;;;20.50;12.67;;;;;;;;;;5031353;28;20444;-80
2023/05/23 01:45:26;;;;;;;17.17;11.80;;;;;;;;;;5027758;28;20415;-80
2023/05/23 01:47:53;;;;;;;12.83;10.23;;;;;;;;;;5025789;28;20461;-80
2023/05/23 01:50:20;;;;;;;16.27;12.73;;;;;;;;;;5012108;28;20814;-80
2023/05/23 01:52:48;;;;;;;16.27;12.80;;;;;;;;;;5032735;28;20926;-80
2023/05/23 01:55:21;;;;;;;16.60;11.67;;;;;;;;;;5034696;28;20448;-80
2023/05/23 01:57:50;;;;;;;18.13;12.83;;;;;;;;;;5028866;28;20506;-81
2023/05/23 02:00:17;;;;;;;16.80;13.83;;;;;;;;;;5032826;28;20910;-80
2023/05/23 02:02:45;;;;;;;18.70;15.60;;;;;;;;;;5032055;28;20440;-81
2023/05/23 02:05:11;;;;;;;19.10;13.83;;;;;;;;;;5033836;28;20456;-79
2023/05/23 02:07:38;;;;;;;23.73;16.63;;;;;;;;;;5032173;28;20464;-80
2023/05/23 02:10:05;;;;;;;27.57;17.57;;;;;;;;;;5031546;28;20451;-80
2023/05/23 02:12:31;;;;;;;29.33;19.03;;;;;;;;;;5026018;28;20834;-79
2023/05/23 02:14:57;;;;;;;25.90;18.40;;;;;;;;;;5014126;28;20452;-79
2023/05/23 02:17:24;;;;;;;29.87;19.97;;;;;;;;;;5014139;28;20461;-80
2023/05/23 02:19:51;;;;;;;29.00;20.00;;;;;;;;;;5028668;28;20854;-80
2023/05/23 02:22:19;;;;;;;32.53;20.07;;;;;;;;;;5026593;28;20427;-80
2023/05/23 02:24:45;;;;;;;35.07;22.60;;;;;;;;;;5014638;28;20469;-79
2023/05/23 02:27:12;;;;;;;37.00;23.80;;;;;;;;;;5023704;28;20974;-79
2023/05/23 02:29:39;;;;;;;43.20;23.60;;;;;;;;;;5032846;28;20465;-80
2023/05/23 02:32:06;;;;;;;37.20;25.10;;;;;;;;;;5031072;28;20465;-80
2023/05/23 02:34:34;;;;;;;40.70;25.60;;;;;;;;;;5007892;28;20497;-80
2023/05/23 02:37:02;;;;;;;45.10;27.60;;;;;;;;;;5029306;28;20435;-80
2023/05/23 02:39:28;;;;;;;46.10;25.80;;;;;;;;;;5023935;28;20459;-80
2023/05/23 02:41:54;;;;;;;40.37;27.20;;;;;;;;;;5029928;28;20438;-80
2023/05/23 02:44:21;;;;;;;45.97;28.27;;;;;;;;;;5019002;28;20523;-80
2023/05/23 02:46:47;;;;;;;48.73;28.77;;;;;;;;;;5006870;28;21010;-79
2023/05/23 02:49:14;;;;;;;47.43;29.97;;;;;;;;;;5013776;28;20472;-80
2023/05/23 02:51:40;;;;;;;50.03;29.80;;;;;;;;;;5029157;28;20427;-80
2023/05/23 02:54:08;;;;;;;45.90;29.33;;;;;;;;;;5028335;28;20477;-79
2023/05/23 02:56:34;;;;;;;61.80;30.90;;;;;;;;;;5024644;28;20438;-80
2023/05/23 02:59:01;;;;;;;55.83;29.80;;;;;;;;;;5025037;28;20481;-80
2023/05/23 03:01:27;;;;;;;56.10;33.50;;;;;;;;;;5013298;28;20511;-79
2023/05/23 03:03:53;;;;;;;58.17;35.00;;;;;;;;;;5032371;28;20472;-80
2023/05/23 03:06:21;;;;;;;53.37;31.80;;;;;;;;;;5027607;28;20477;-80
2023/05/23 03:08:47;;;;;;;54.50;33.00;;;;;;;;;;5029468;28;20481;-80
2023/05/23 03:11:15;;;;;;;52.40;32.40;;;;;;;;;;5032101;28;20451;-80
2023/05/23 03:13:41;;;;;;;64.30;33.47;;;;;;;;;;5010457;28;20462;-80
2023/05/23 03:16:08;;;;;;;46.97;34.10;;;;;;;;;;5030445;28;20441;-80
2023/05/23 03:18:36;;;;;;;60.43;32.50;;;;;;;;;;5021816;28;20468;-79
2023/05/23 03:21:02;;;;;;;62.80;33.73;;;;;;;;;;5029200;28;20798;-79
2023/05/23 03:23:28;;;;;;;54.33;33.10;;;;;;;;;;5025523;28;20551;-80
2023/05/23 03:25:55;;;;;;;44.00;31.67;;;;;;;;;;5030109;28;20850;-80
2023/05/23 03:28:22;;;;;;;58.77;31.07;;;;;;;;;;5029710;28;20893;-80
2023/05/23 03:30:49;;;;;;;46.10;30.00;;;;;;;;;;5032222;28;20499;-80
2023/05/23 03:33:16;;;;;;;46.17;27.80;;;;;;;;;;5028880;28;20468;-80
2023/05/23 03:35:43;;;;;;;42.23;28.57;;;;;;;;;;5009989;28;20460;-80
2023/05/23 03:38:09;;;;;;;45.60;26.37;;;;;;;;;;5030374;28;20502;-80
2023/05/23 03:40:36;;;;;;;43.20;25.90;;;;;;;;;;5017435;28;20495;-80
2023/05/23 03:43:03;;;;;;;40.90;26.07;;;;;;;;;;5032932;28;20495;-80
2023/05/23 03:45:31;;;;;;;46.83;25.93;;;;;;;;;;5028990;28;20817;-80
2023/05/23 03:47:58;;;;;;;38.47;24.47;;;;;;;;;;5030974;28;20991;-80
2023/05/23 03:50:24;;;;;;;62.77;27.90;;;;;;;;;;5021775;28;20452;-80
2023/05/23 03:52:50;;;;;;;48.63;26.50;;;;;;;;;;5032943;28;20468;-80
2023/05/23 03:55:21;;;;;;;39.73;25.83;;;;;;;;;;5035134;28;20448;-80
2023/05/23 03:57:47;;;;;;;41.53;24.30;;;;;;;;;;5033401;28;21052;-80
2023/05/23 04:00:14;;;;;;;44.60;26.10;;;;;;;;;;5035054;28;20464;-80
2023/05/23 04:02:42;;;;;;;36.63;25.27;;;;;;;;;;5032871;28;20452;-81
2023/05/23 04:05:09;;;;;;;43.43;25.63;;;;;;;;;;5032281;28;20452;-80
2023/05/23 04:07:35;;;;;;;39.03;24.37;;;;;;;;;;5031857;28;20488;-80
2023/05/23 04:10:01;;;;;;;37.17;24.80;;;;;;;;;;5028895;28;20476;-80
2023/05/23 04:12:29;;;;;;;36.57;25.60;;;;;;;;;;5033297;28;20456;-80
2023/05/23 04:14:56;;;;;;;39.80;27.40;;;;;;;;;;5025228;28;20480;-80
2023/05/23 04:17:22;;;;;;;33.00;26.03;;;;;;;;;;5029010;28;20461;-80
2023/05/23 04:19:50;;;;;;;42.37;24.90;;;;;;;;;;5030136;28;20477;-80
2023/05/23 04:22:17;;;;;;;31.80;22.77;;;;;;;;;;5024792;28;20812;-80
2023/05/23 04:24:44;;;;;;;36.07;23.60;;;;;;;;;;5035290;28;21031;-80
2023/05/23 04:27:12;;;;;;;32.90;22.20;;;;;;;;;;5035607;28;20484;-80
2023/05/23 04:29:39;;;;;;;33.23;21.60;;;;;;;;;;5029470;28;20472;-80
2023/05/23 04:32:06;;;;;;;28.47;19.30;;;;;;;;;;5033006;28;20978;-80
2023/05/23 04:34:33;;;;;;;26.67;17.10;;;;;;;;;;5023736;28;20508;-80
2023/05/23 04:37:01;;;;;;;23.73;19.40;;;;;;;;;;5028203;28;20511;-80
2023/05/23 04:39:28;;;;;;;24.90;19.93;;;;;;;;;;5033684;28;20564;-80
2023/05/23 04:41:55;;;;;;;27.17;18.53;;;;;;;;;;5031886;28;20512;-80
2023/05/23 04:44:21;;;;;;;20.57;17.60;;;;;;;;;;5031158;28;20484;-80
2023/05/23 04:46:49;;;;;;;22.83;17.33;;;;;;;;;;5033030;28;20515;-80
2023/05/23 04:49:15;;;;;;;23.17;18.60;;;;;;;;;;5016491;28;20530;-80
2023/05/23 04:51:43;;;;;;;28.67;19.10;;;;;;;;;;5032069;28;20449;-80
2023/05/23 04:54:11;;;;;;;22.30;16.77;;;;;;;;;;5034901;28;20845;-80
2023/05/23 04:56:37;;;;;;;24.27;18.07;;;;;;;;;;5026541;28;20457;-80
2023/05/23 04:59:03;;;;;;;24.87;17.97;;;;;;;;;;5028440;28;20466;-80
2023/05/23 05:01:30;;;;;;;31.20;19.20;;;;;;;;;;5032761;28;20461;-79
2023/05/23 05:03:57;;;;;;;27.60;20.03;;;;;;;;;;5032650;28;20476;-80
2023/05/23 05:06:26;;;;;;;31.13;18.60;;;;;;;;;;5034245;28;20466;-80
2023/05/23 05:08:52;;;;;;;26.30;19.40;;;;;;;;;;5035124;28;20836;-80
2023/05/23 05:11:20;;;;;;;32.97;18.90;;;;;;;;;;5030331;28;20445;-81
2023/05/23 05:13:47;;;;;;;26.47;16.40;;;;;;;;;;5031333;28;20466;-81
2023/05/23 05:16:13;;;;;;;28.13;17.60;;;;;;;;;;5031571;28;20450;-81
2023/05/23 05:18:40;;;;;;;25.90;18.20;;;;;;;;;;5034858;28;20480;-81
2023/05/23 05:21:07;;;;;;;34.13;18.60;;;;;;;;;;5033174;28;20458;-82
2023/05/23 05:23:33;;;;;;;26.37;15.50;;;;;;;;;;5028781;28;20469;-81
2023/05/23 05:26:00;;;;;;;22.60;14.70;;;;;;;;;;5027610;28;20455;-81
2023/05/23 05:28:28;;;;;;;23.63;14.93;;;;;;;;;;5034502;28;20487;-81
2023/05/23 05:30:54;;;;;;;18.23;13.13;;;;;;;;;;5033225;28;21090;-82
2023/05/23 05:33:22;;;;;;;31.43;15.43;;;;;;;;;;5031468;28;20473;-81
2023/05/23 05:35:48;;;;;;;23.97;13.90;;;;;;;;;;5031026;28;20487;-81
2023/05/23 05:38:15;;;;;;;28.67;12.63;;;;;;;;;;5033773;28;20472;-82
2023/05/23 05:40:41;;;;;;;22.10;14.50;;;;;;;;;;5031657;28;20461;-81
2023/05/23 05:43:08;;;;;;;16.33;11.60;;;;;;;;;;5025034;28;20469;-80
2023/05/23 05:45:36;;;;;;;22.37;11.70;;;;;;;;;;5035005;28;20453;-81
2023/05/23 05:48:02;;;;;;;18.40;11.57;;;;;;;;;;5033332;28;20459;-80
2023/05/23 05:50:29;;;;;;;21.87;11.67;;;;;;;;;;5035457;28;20441;-82
2023/05/23 05:52:56;;;;;;;20.73;12.50;;;;;;;;;;5029024;28;20488;-81
2023/05/23 05:55:22;;;;;;;27.80;10.57;;;;;;;;;;5027176;28;20453;-81
2023/05/23 05:57:49;;;;;;;28.37;10.67;;;;;;;;;;5030098;28;20461;-81
2023/05/23 06:00:17;;;;;;;29.40;11.70;;;;;;;;;;5035029;28;20456;-82
2023/05/23 06:02:46;;;;;;;21.10;9.50;;;;;;;;;;5028237;28;20460;-81
2023/05/23 06:05:15;;;;;;;23.40;10.10;;;;;;;;;;5015232;28;20467;-82
2023/05/23 06:07:41;;;;;;;22.23;10.17;;;;;;;;;;5029435;28;20856;-82
2023/05/23 06:10:11;;;;;;;24.73;12.63;;;;;;;;;;5008850;28;20459;-82
2023/05/23 06:12:38;;;;;;;31.57;12.50;;;;;;;;;;5015627;28;20488;-81
2023/05/23 06:15:05;;;;;;;32.33;11.30;;;;;;;;;;5031582;28;20472;-81
2023/05/23 06:17:31;;;;;;;27.30;10.37;;;;;;;;;;5031223;28;20474;-81
2023/05/23 06:19:59;;;;;;;27.60;11.10;;;;;;;;;;5034082;28;20492;-81
2023/05/23 06:22:25;;;;;;;29.10;9.80;;;;;;;;;;5032589;28;20456;-81
2023/05/23 06:24:52;;;;;;;19.93;9.50;;;;;;;;;;5008877;28;20477;-82
2023/05/23 06:27:18;;;;;;;22.33;8.47;;;;;;;;;;5033583;28;20491;-81
2023/05/23 06:29:44;;;;;;;17.47;6.50;;;;;;;;;;5031907;28;20476;-82
2023/05/23 06:32:11;;;;;;;18.20;6.87;;;;;;;;;;5031985;28;20467;-82
2023/05/23 06:34:37;;;;;;;24.60;7.80;;;;;;;;;;5025236;28;20492;-81
2023/05/23 06:37:05;;;;;;;20.87;6.00;;;;;;;;;;5028209;28;21000;-82
2023/05/23 06:39:31;;;;;;;18.00;6.57;;;;;;;;;;5029106;28;20475;-81
2023/05/23 06:41:57;;;;;;;18.30;5.87;;;;;;;;;;5024925;28;20461;-81
2023/05/23 06:44:24;;;;;;;25.80;5.67;;;;;;;;;;5032329;28;20852;-83
2023/05/23 06:46:50;;;;;;;15.23;5.37;;;;;;;;;;5033341;28;20459;-81
2023/05/23 06:49:17;;;;;;;15.10;5.40;;;;;;;;;;5028957;28;20476;-80
2023/05/23 06:51:43;;;;;;;20.90;5.90;;;;;;;;;;5006323;28;20457;-80
2023/05/23 06:54:11;;;;;;;13.43;4.60;;;;;;;;;;5033471;28;20472;-82
2023/05/23 06:56:37;;;;;;;13.27;4.40;;;;;;;;;;5026412;28;20966;-82
2023/05/23 06:59:03;;;;;;;12.20;5.13;;;;;;;;;;5032272;28;20881;-81
2023/05/23 07:01:30;;;;;;;10.13;5.33;;;;;;;;;;5026466;28;20456;-81
2023/05/23 07:03:56;;;;;;;18.13;5.83;;;;;;;;;;5028685;28;20476;-81
2023/05/23 07:06:23;;;;;;;8.47;4.53;;;;;;;;;;5029491;28;20456;-82
2023/05/23 07:08:49;;;;;;;11.07;4.00;;;;;;;;;;5011076;28;20469;-82
2023/05/23 07:11:17;;;;;;;17.60;5.50;;;;;;;;;;5032562;28;20958;-81
2023/05/23 07:13:43;;;;;;;18.80;6.13;;;;;;;;;;5031654;28;20487;-81
2023/05/23 07:16:10;;;;;;;14.07;5.77;;;;;;;;;;5025220;28;20449;-81
2023/05/23 07:18:36;;;;;;;11.60;5.37;;;;;;;;;;5028835;28;20481;-81
2023/05/23 07:21:02;;;;;;;13.97;5.17;;;;;;;;;;5032140;28;20456;-82
2023/05/23 07:23:32;;;;;;;11.30;4.60;;;;;;;;;;5020388;28;20477;-81
2023/05/23 07:25:59;;;;;;;15.07;7.00;;;;;;;;;;5026264;28;20457;-81
2023/05/23 07:28:26;;;;;;;9.63;4.93;;;;;;;;;;5029589;28;20893;-82
2023/05/23 07:30:53;;;;;;;16.77;6.50;;;;;;;;;;5018850;28;20452;-83
2023/05/23 07:33:19;;;;;;;12.70;5.90;;;;;;;;;;5033235;28;20555;-82
2023/05/23 07:35:46;;;;;;;9.97;4.87;;;;;;;;;;5025797;28;20464;-82
2023/05/23 07:38:12;;;;;;;14.30;5.70;;;;;;;;;;5020965;28;20477;-81
2023/05/23 07:40:39;;;;;;;21.80;4.80;;;;;;;;;;5014779;28;20866;-82
2023/05/23 07:43:05;;;;;;;8.23;3.70;;;;;;;;;;5023466;28;20547;-82
2023/05/23 07:45:33;;;;;;;9.47;4.50;;;;;;;;;;5029557;28;20457;-80
2023/05/23 07:47:59;;;;;;;12.40;4.63;;;;;;;;;;5029442;28;20484;-81
2023/05/23 07:50:26;;;;;;;12.70;3.93;;;;;;;;;;5032145;28;20478;-81
2023/05/23 07:52:53;;;;;;;13.33;4.83;;;;;;;;;;5027171;28;20462;-81
2023/05/23 07:55:20;;;;;;;12.40;4.93;;;;;;;;;;5033115;28;20461;-81
2023/05/23 07:57:46;;;;;;;22.83;5.50;;;;;;;;;;5032888;28;20495;-81
2023/05/23 08:00:13;;;;;;;9.00;4.43;;;;;;;;;;5031959;28;20464;-80
2023/05/23 08:02:41;;;;;;;14.23;6.80;;;;;;;;;;5028519;28;20492;-82
2023/05/23 08:05:08;;;;;;;22.80;7.23;;;;;;;;;;5029671;28;20473;-81
2023/05/23 08:07:35;;;;;;;17.73;5.00;;;;;;;;;;5032871;28;20484;-81
2023/05/23 08:10:01;;;;;;;16.73;5.50;;;;;;;;;;5031652;28;20477;-81
2023/05/23 08:12:28;;;;;;;17.57;4.93;;;;;;;;;;5033836;28;20456;-81
2023/05/23 08:14:54;;;;;;;15.07;4.63;;;;;;;;;;5031593;28;20477;-82
2023/05/23 08:17:20;;;;;;;13.80;5.10;;;;;;;;;;5027857;28;20466;-81
2023/05/23 08:19:48;;;;;;;16.43;5.13;;;;;;;;;;5031409;28;20472;-81
2023/05/23 08:22:14;;;;;;;17.27;5.90;;;;;;;;;;5031712;28;20461;-81
2023/05/23 08:24:41;;;;;;;12.50;5.13;;;;;;;;;;5031494;28;20473;-81
2023/05/23 08:27:08;;;;;;;19.03;5.60;;;;;;;;;;5031433;28;20537;-81
2023/05/23 08:29:36;;;;;;;20.20;5.50;;;;;;;;;;5033330;28;20476;-81
2023/05/23 08:32:02;;;;;;;13.97;5.77;;;;;;;;;;5032850;28;20452;-81
2023/05/23 08:34:29;;;;;;;10.50;4.60;;;;;;;;;;5027598;28;20476;-82
2023/05/23 08:36:56;;;;;;;13.63;4.50;;;;;;;;;;5018704;28;20476;-81
2023/05/23 08:39:23;;;;;;;14.43;6.07;;;;;;;;;;5032792;28;20476;-81
2023/05/23 08:41:49;;;;;;;14.57;5.50;;;;;;;;;;5034293;28;21009;-81
2023/05/23 08:44:15;;;;;;;14.17;5.13;;;;;;;;;;5029622;28;20473;-81
2023/05/23 08:46:44;;;;;;;21.03;5.90;;;;;;;;;;5010887;28;20464;-81
2023/05/23 08:49:13;;;;;;;19.47;5.40;;;;;;;;;;5036381;28;20484;-81
2023/05/23 08:51:42;;;;;;;22.17;6.73;;;;;;;;;;5035820;28;20939;-81
2023/05/23 08:54:11;;;;;;;13.97;5.57;;;;;;;;;;5032034;28;20469;-81
2023/05/23 08:56:38;;;;;;;19.00;5.40;;;;;;;;;;5025010;28;20450;-82
2023/05/23 08:59:05;;;;;;;20.23;8.10;;;;;;;;;;5033399;28;21013;-81
2023/05/23 09:01:32;;;;;;;16.97;5.10;;;;;;;;;;5031746;28;20476;-81
2023/05/23 09:04:03;;;;;;;20.17;5.77;;;;;;;;;;5034990;28;20475;-81
2023/05/23 09:06:31;;;;;;;15.43;5.77;;;;;;;;;;5033864;28;20463;-82
2023/05/23 09:08:57;;;;;;;8.23;4.77;;;;;;;;;;5033026;28;21016;-81
2023/05/23 09:11:25;;;;;;;18.67;4.80;;;;;;;;;;5033169;28;20456;-82
2023/05/23 09:13:52;;;;;;;15.50;4.77;;;;;;;;;;5033131;28;20861;-83
2023/05/23 09:16:19;;;;;;;16.57;4.80;;;;;;;;;;5017829;28;20472;-82
2023/05/23 09:18:46;;;;;;;11.77;5.47;;;;;;;;;;5033324;28;20480;-81
2023/05/23 09:21:13;;;;;;;11.57;4.93;;;;;;;;;;5033670;28;20483;-81
2023/05/23 09:23:40;;;;;;;13.33;5.10;;;;;;;;;;5039736;28;20978;-81
2023/05/23 09:26:07;;;;;;;19.33;5.17;;;;;;;;;;5034010;28;20974;-82
2023/05/23 09:28:36;;;;;;;11.67;3.97;;;;;;;;;;5035218;28;20480;-82
2023/05/23 09:31:04;;;;;;;14.43;4.60;;;;;;;;;;5031338;28;20468;-82
2023/05/23 09:33:36;;;;;;;26.93;6.87;;;;;;;;;;5013334;28;20505;-82
2023/05/23 09:36:03;;;;;;;18.70;5.07;;;;;;;;;;5030953;28;20457;-81
2023/05/23 09:38:29;;;;;;;9.83;3.87;;;;;;;;;;5033251;28;20555;-83
2023/05/23 09:40:56;;;;;;;14.53;5.60;;;;;;;;;;5033358;28;20530;-81
2023/05/23 09:43:23;;;;;;;10.37;4.90;;;;;;;;;;5025787;28;20473;-81
2023/05/23 09:45:52;;;;;;;13.67;4.30;;;;;;;;;;5011780;28;20448;-81
2023/05/23 09:48:20;;;;;;;12.73;4.43;;;;;;;;;;5022173;28;20584;-81
2023/05/23 09:50:50;;;;;;;9.70;4.93;;;;;;;;;;5029411;28;20967;-80
2023/05/23 09:53:16;;;;;;;17.97;5.63;;;;;;;;;;5033699;28;20491;-81
2023/05/23 09:55:43;;;;;;;16.47;6.33;;;;;;;;;;5032931;28;20487;-81
2023/05/23 09:58:09;;;;;;;16.73;5.43;;;;;;;;;;5034646;28;20464;-81
2023/05/23 10:00:37;;;;;;;17.93;5.80;;;;;;;;;;5035156;28;20475;-81
2023/05/23 10:03:11;;;;;;;13.90;5.17;;;;;;;;;;5024891;28;20943;-82
2023/05/23 10:05:40;;;;;;;27.03;5.87;;;;;;;;;;5031930;28;20507;-82
2023/05/23 10:08:09;;;;;;;13.30;4.10;;;;;;;;;;5032525;28;20986;-82
2023/05/23 10:10:50;;;;;;;17.50;5.20;;;;;;;;;;5034981;28;20457;-82
2023/05/23 10:13:17;;;;;;;9.53;3.93;;;;;;;;;;5033619;28;20469;-80
2023/05/23 10:15:43;;;;;;;22.70;7.00;;;;;;;;;;5034806;28;20452;-81
2023/05/23 10:18:16;;;;;;;16.83;4.50;;;;;;;;;;5023271;28;20815;-80
2023/05/23 10:20:43;;;;;;;13.30;4.63;;;;;;;;;;5007172;28;20449;-83
2023/05/23 10:23:10;;;;;;;14.17;4.60;;;;;;;;;;5031737;28;20869;-81
2023/05/23 10:25:37;;;;;;;10.87;4.57;;;;;;;;;;5030138;28;20465;-81
2023/05/23 10:28:04;;;;;;;19.57;4.70;;;;;;;;;;5033585;28;20480;-81
2023/05/23 10:30:31;;;;;;;22.10;4.40;;;;;;;;;;5030758;28;20452;-82
2023/05/23 10:32:58;;;;;;;14.43;5.10;;;;;;;;;;5013949;28;20456;-83
2023/05/23 10:35:32;;;;;;;12.10;4.30;;;;;;;;;;5026844;28;20581;-81
2023/05/23 10:38:04;;;;;;;15.20;4.40;;;;;;;;;;5026033;28;20479;-82
2023/05/23 10:40:34;;;;;;;14.23;4.90;;;;;;;;;;5029514;28;20468;-81
2023/05/23 10:43:05;;;;;;;15.83;4.37;;;;;;;;;;5027363;28;20821;-81
2023/05/23 10:45:41;;;;;;;14.23;5.00;;;;;;;;;;5028445;28;20461;-82
2023/05/23 10:48:16;;;;;;;12.20;4.43;;;;;;;;;;5026175;28;20499;-82
2023/05/23 10:50:45;;;;;;;11.70;4.83;;;;;;;;;;5009847;28;20452;-81
2023/05/23 10:53:15;;;;;;;23.03;5.43;;;;;;;;;;5031498;28;20499;-81
2023/05/23 10:55:48;;;;;;;15.57;5.10;;;;;;;;;;5026331;28;20468;-81
2023/05/23 10:58:16;;;;;;;13.27;5.00;;;;;;;;;;5035456;28;20488;-82
2023/05/23 11:00:50;;;;;;;16.57;5.33;;;;;;;;;;5014489;28;20907;-82
2023/05/23 11:03:17;;;;;;;8.27;4.20;;;;;;;;;;5014285;28;20464;-81
2023/05/23 11:05:52;;;;;;;10.83;4.47;;;;;;;;;;5029958;28;20531;-81
2023/05/23 11:08:19;;;;;;;17.53;6.10;;;;;;;;;;5031610;28;20468;-81
2023/05/23 11:10:54;;;;;;;10.73;4.57;;;;;;;;;;5033193;28;20460;-82
2023/05/23 11:13:21;;;;;;;16.33;6.70;;;;;;;;;;5029501;28;20438;-82
2023/05/23 11:15:49;;;;;;;13.07;4.00;;;;;;;;;;5028240;28;20468;-83
2023/05/23 11:18:20;;;;;;;14.33;4.97;;;;;;;;;;5013250;28;20530;-83
2023/05/23 11:20:47;;;;;;;15.63;5.20;;;;;;;;;;5031832;28;20837;-83
2023/05/23 11:23:14;;;;;;;15.23;4.60;;;;;;;;;;5032623;28;20479;-82
2023/05/23 11:25:42;;;;;;;19.50;5.10;;;;;;;;;;5023427;28;20457;-81
2023/05/23 11:28:08;;;;;;;12.10;5.63;;;;;;;;;;5028832;28;21054;-82
2023/05/23 11:30:35;;;;;;;27.53;5.60;;;;;;;;;;5033027;28;20491;-82
2023/05/23 11:33:06;;;;;;;13.67;5.03;;;;;;;;;;5031185;28;20839;-81
2023/05/23 11:35:32;;;;;;;16.67;5.20;;;;;;;;;;5027828;28;20459;-83
2023/05/23 11:37:59;;;;;;;17.60;4.90;;;;;;;;;;5037417;28;20472;-82
2023/05/23 11:40:28;;;;;;;14.70;4.87;;;;;;;;;;5020179;28;20464;-82
2023/05/23 11:42:55;;;;;;;14.17;4.27;;;;;;;;;;5033297;28;20453;-81
2023/05/23 11:45:21;;;;;;;11.93;4.20;;;;;;;;;;5033374;28;20453;-82
2023/05/23 11:47:48;;;;;;;21.93;5.27;;;;;;;;;;5031343;28;20472;-82
2023/05/23 11:50:14;;;;;;;12.57;4.77;;;;;;;;;;5014944;28;20476;-82
2023/05/23 11:52:41;;;;;;;15.77;5.23;;;;;;;;;;5032368;28;20457;-81
2023/05/23 11:55:08;;;;;;;17.03;5.67;;;;;;;;;;5025432;28;20532;-83
2023/05/23 11:57:39;;;;;;;12.67;4.80;;;;;;;;;;5032216;28;20845;-82
2023/05/23 12:00:07;;;;;;;22.53;6.70;;;;;;;;;;5011715;28;20466;-82
2023/05/23 12:02:38;;;;;;;13.63;5.33;;;;;;;;;;5036498;28;20517;-82
2023/05/23 12:05:07;;;;;;;11.90;5.50;;;;;;;;;;5019819;28;20447;-82
2023/05/23 12:07:35;;;;;;;17.57;5.40;;;;;;;;;;5035543;28;20472;-82
2023/05/23 12:10:02;;;;;;;14.50;4.87;;;;;;;;;;5012746;28;20472;-81
2023/05/23 12:12:28;;;;;;;14.47;5.50;;;;;;;;;;5038538;28;20539;-81
2023/05/23 12:14:57;;;;;;;13.30;5.50;;;;;;;;;;5036014;28;20483;-81
2023/05/23 12:17:24;;;;;;;12.00;5.07;;;;;;;;;;5018963;28;20468;-82
2023/05/23 12:19:50;;;;;;;10.60;4.23;;;;;;;;;;5020740;28;20476;-82
2023/05/23 12:22:22;;;;;;;14.87;3.90;;;;;;;;;;5037156;28;20440;-81
2023/05/23 12:24:48;;;;;;;12.43;4.43;;;;;;;;;;5036445;28;20561;-82
2023/05/23 12:27:16;;;;;;;19.87;5.10;;;;;;;;;;5031440;28;20471;-82
2023/05/23 12:29:42;;;;;;;17.10;5.30;;;;;;;;;;5037901;28;20499;-82
2023/05/23 12:32:10;;;;;;;17.47;5.77;;;;;;;;;;5037631;28;20460;-82
2023/05/23 12:34:40;;;;;;;13.70;4.30;;;;;;;;;;5015670;28;21006;-82
2023/05/23 12:37:07;;;;;;;12.20;4.83;;;;;;;;;;5035327;28;20480;-81
2023/05/23 12:39:35;;;;;;;17.30;4.60;;;;;;;;;;5035796;28;20475;-81
2023/05/23 12:42:11;;;;;;;13.77;4.53;;;;;;;;;;5036891;28;20456;-82
2023/05/23 12:44:40;;;;;;;12.60;4.47;;;;;;;;;;5036023;28;20488;-82
2023/05/23 12:47:07;;;;;;;16.30;4.13;;;;;;;;;;5026907;28;20477;-81
2023/05/23 12:49:34;;;;;;;9.03;4.60;;;;;;;;;;5034616;28;20482;-81
2023/05/23 12:52:01;;;;;;;18.17;7.93;;;;;;;;;;5039162;28;20452;-82
2023/05/23 12:54:27;;;;;;;17.80;4.50;;;;;;;;;;5035042;28;21014;-81
2023/05/23 12:56:53;;;;;;;15.37;4.50;;;;;;;;;;5031869;28;20472;-82
2023/05/23 12:59:21;;;;;;;11.30;3.73;;;;;;;;;;5032186;28;20538;-83
2023/05/23 13:01:48;;;;;;;11.83;4.63;;;;;;;;;;5030637;28;20447;-80
2023/05/23 13:04:14;;;;;;;11.87;4.40;;;;;;;;;;5031250;28;20490;-83
2023/05/23 13:06:42;;;;;;;15.50;6.10;;;;;;;;;;5030080;28;20453;-80
2023/05/23 13:09:09;;;;;;;9.00;4.93;;;;;;;;;;5034044;28;20460;-80
2023/05/23 13:11:36;;;;;;;10.90;5.03;;;;;;;;;;5031548;28;20955;-82
2023/05/23 13:14:03;;;;;;;14.47;4.43;;;;;;;;;;5032393;28;21029;-82
2023/05/23 13:16:29;;;;;;;11.53;5.00;;;;;;;;;;5036502;28;20465;-81
2023/05/23 13:18:55;;;;;;;10.07;4.17;;;;;;;;;;5035089;28;20487;-82
2023/05/23 13:21:22;;;;;;;22.10;5.43;;;;;;;;;;5037394;28;20465;-82
2023/05/23 13:23:50;;;;;;;18.00;5.50;;;;;;;;;;5032620;28;20480;-82
2023/05/23 13:26:17;;;;;;;12.43;4.20;;;;;;;;;;5018339;28;20437;-81
2023/05/23 13:28:43;;;;;;;9.97;3.80;;;;;;;;;;5031278;28;20487;-82
2023/05/23 13:31:10;;;;;;;9.73;4.07;;;;;;;;;;5025256;28;20476;-81
2023/05/23 13:33:36;;;;;;;9.90;4.20;;;;;;;;;;5033354;28;20471;-81
2023/05/23 13:36:03;;;;;;;13.00;4.30;;;;;;;;;;5034815;28;20548;-82
2023/05/23 13:38:30;;;;;;;13.50;4.20;;;;;;;;;;5037806;28;20472;-82
2023/05/23 13:40:58;;;;;;;11.00;4.00;;;;;;;;;;5015955;28;20472;-81
2023/05/23 13:43:25;;;;;;;15.77;5.17;;;;;;;;;;5031091;28;20469;-82
2023/05/23 13:45:51;;;;;;;13.43;4.93;;;;;;;;;;5033468;28;20440;-83
2023/05/23 13:48:18;;;;;;;17.13;4.80;;;;;;;;;;5033001;28;20843;-85
2023/05/23 13:50:44;;;;;;;9.60;3.93;;;;;;;;;;5029906;28;20828;-81
2023/05/23 13:53:15;;;;;;;12.40;3.80;;;;;;;;;;5030944;28;20466;-80
2023/05/23 13:55:41;;;;;;;13.73;4.73;;;;;;;;;;5024652;28;20960;-81
2023/05/23 13:58:09;;;;;;;16.80;4.93;;;;;;;;;;5032762;28;20469;-81
2023/05/23 14:00:36;;;;;;;17.90;6.50;;;;;;;;;;5036927;28;20854;-80
2023/05/23 14:03:03;;;;;;;16.23;5.50;;;;;;;;;;5030053;28;20531;-81
2023/05/23 14:05:29;;;;;;;12.00;4.50;;;;;;;;;;5029437;28;20784;-82
2023/05/23 14:07:56;;;;;;;13.27;3.87;;;;;;;;;;5025799;28;20470;-81
2023/05/23 14:10:23;;;;;;;9.80;4.73;;;;;;;;;;5013464;28;20459;-80
2023/05/23 14:12:51;;;;;;;7.37;3.10;;;;;;;;;;5029041;28;20461;-82
2023/05/23 14:15:19;;;;;;;17.83;3.40;;;;;;;;;;5030207;28;20461;-81
2023/05/23 14:17:45;;;;;;;8.50;3.00;;;;;;;;;;5033067;28;20451;-81
2023/05/23 14:20:12;;;;;;;10.40;3.03;;;;;;;;;;5028779;28;20457;-80
2023/05/23 14:22:38;;;;;;;11.23;3.17;;;;;;;;;;5033798;28;20803;-80
2023/05/23 14:25:05;;;;;;;6.43;2.80;;;;;;;;;;5032862;28;20477;-80
2023/05/23 14:27:32;;;;;;;13.63;3.67;;;;;;;;;;5029490;28;20900;-81